createdAt,value
2018-01-14T00:01:03.688Z,89.70
2018-01-14T00:03:31.223Z,89.70
2018-01-14T00:05:58.751Z,89.90
2018-01-14T00:08:27.035Z,90.20
2018-01-14T00:10:55.327Z,90.20
2018-01-14T00:13:22.844Z,90.20
2018-01-14T00:15:50.400Z,90.00
2018-01-14T00:18:17.924Z,90.10
2018-01-14T00:20:45.437Z,90.10
2018-01-14T00:23:13.764Z,90.10
2018-01-14T00:25:41.279Z,90.10
2018-01-14T00:28:09.582Z,90.30
2018-01-14T00:30:37.904Z,90.40
2018-01-14T00:33:05.422Z,90.40
2018-01-14T00:35:32.981Z,90.40
2018-01-14T00:38:00.527Z,90.40
2018-01-14T00:40:28.037Z,90.40
2018-01-14T00:42:55.584Z,90.40
2018-01-14T00:45:23.093Z,90.60
2018-01-14T00:47:50.610Z,90.60
2018-01-14T00:50:18.148Z,90.80
2018-01-14T00:52:45.649Z,90.80
2018-01-14T00:55:13.188Z,90.60
2018-01-14T00:57:40.726Z,90.70
2018-01-14T01:00:08.315Z,90.70
2018-01-14T01:02:35.827Z,90.50
2018-01-14T01:05:03.347Z,90.70
2018-01-14T01:07:31.638Z,90.90
2018-01-14T01:09:59.136Z,90.70
2018-01-14T01:12:26.693Z,90.80
2018-01-14T01:14:54.191Z,90.80
2018-01-14T01:17:21.723Z,90.60
2018-01-14T01:19:49.263Z,90.60
2018-01-14T01:22:16.782Z,90.70
2018-01-14T01:24:45.127Z,90.80
2018-01-14T01:27:12.644Z,90.80
2018-01-14T01:29:40.144Z,90.90
2018-01-14T01:32:07.685Z,90.90
2018-01-14T01:34:35.214Z,90.80
2018-01-14T01:37:02.751Z,90.80
2018-01-14T01:39:30.259Z,90.90
2018-01-14T01:41:57.809Z,91.00
2018-01-14T01:44:25.333Z,90.90
2018-01-14T01:46:53.624Z,91.20
2018-01-14T01:49:21.183Z,91.20
2018-01-14T01:51:48.707Z,91.20
2018-01-14T01:54:16.238Z,91.00
2018-01-14T01:56:43.741Z,91.30
2018-01-14T01:59:11.253Z,91.10
2018-01-14T02:01:38.803Z,91.20
2018-01-14T02:04:06.362Z,91.20
2018-01-14T02:06:33.893Z,91.10
2018-01-14T02:09:01.394Z,91.20
2018-01-14T02:11:28.954Z,91.20
2018-01-14T02:13:56.473Z,91.30
2018-01-14T02:16:24.066Z,91.30
2018-01-14T02:18:51.563Z,91.30
2018-01-14T02:21:19.848Z,91.50
2018-01-14T02:23:47.395Z,91.50
2018-01-14T02:26:15.711Z,91.50
2018-01-14T02:28:43.217Z,91.50
2018-01-14T02:31:10.748Z,91.30
2018-01-14T02:33:38.255Z,91.30
2018-01-14T02:36:06.551Z,91.30
2018-01-14T02:38:34.078Z,91.30
2018-01-14T02:41:02.386Z,91.30
2018-01-14T02:43:29.935Z,91.30
2018-01-14T02:45:58.207Z,91.60
2018-01-14T02:48:25.756Z,91.60
2018-01-14T02:50:54.171Z,91.60
2018-01-14T02:53:21.707Z,91.60
2018-01-14T02:55:50.005Z,91.80
2018-01-14T02:58:17.511Z,91.80
2018-01-14T03:00:45.012Z,92.00
2018-01-14T03:03:12.542Z,91.70
2018-01-14T03:05:40.829Z,91.80
2018-01-14T03:08:09.111Z,91.90
2018-01-14T03:10:37.396Z,91.90
2018-01-14T03:13:04.910Z,91.90
2018-01-14T03:15:32.452Z,91.90
2018-01-14T03:17:59.996Z,92.00
2018-01-14T03:20:27.535Z,91.90
2018-01-14T03:22:55.050Z,91.90
2018-01-14T03:25:22.556Z,92.10
2018-01-14T03:27:50.090Z,92.00
2018-01-14T03:30:18.373Z,92.20
2018-01-14T03:32:46.678Z,92.10
2018-01-14T03:35:14.295Z,92.10
2018-01-14T03:37:42.605Z,92.30
2018-01-14T03:40:10.131Z,92.30
2018-01-14T03:42:38.437Z,92.30
2018-01-14T03:45:05.958Z,92.30
2018-01-14T03:47:33.507Z,92.40
2018-01-14T03:50:01.024Z,92.40
2018-01-14T03:52:28.563Z,92.60
2018-01-14T03:54:56.099Z,92.70
2018-01-14T03:57:23.610Z,92.60
2018-01-14T03:59:51.142Z,92.60
2018-01-14T04:02:18.653Z,92.60
2018-01-14T04:04:46.174Z,92.40
2018-01-14T04:07:13.712Z,92.50
2018-01-14T04:09:41.231Z,92.70
2018-01-14T04:12:08.773Z,92.80
2018-01-14T04:14:36.294Z,92.80
2018-01-14T04:17:03.832Z,92.80
2018-01-14T04:19:32.246Z,93.00
2018-01-14T04:21:59.796Z,93.00
2018-01-14T04:24:27.299Z,93.00
2018-01-14T04:26:54.821Z,93.00
2018-01-14T04:29:22.331Z,93.00
2018-01-14T04:31:49.872Z,93.10
2018-01-14T04:34:17.407Z,93.10
2018-01-14T04:36:44.910Z,93.00
2018-01-14T04:39:12.451Z,93.10
2018-01-14T04:41:39.968Z,93.10
2018-01-14T04:44:07.532Z,93.10
2018-01-14T04:46:35.057Z,93.10
2018-01-14T04:49:03.343Z,93.10
2018-01-14T04:51:31.637Z,93.30
2018-01-14T04:53:59.137Z,93.30
2018-01-14T04:56:26.685Z,93.30
2018-01-14T04:58:54.204Z,93.30
2018-01-14T05:01:21.724Z,93.40
2018-01-14T05:03:49.274Z,93.50
2018-01-14T05:06:16.784Z,93.20
2018-01-14T05:08:44.313Z,93.40
2018-01-14T05:11:12.603Z,93.50
2018-01-14T05:13:41.010Z,93.30
2018-01-14T05:16:08.531Z,93.30
2018-01-14T05:18:36.817Z,93.30
2018-01-14T05:21:05.100Z,93.20
2018-01-14T05:23:32.639Z,93.20
2018-01-14T05:26:01.028Z,93.20
2018-01-14T05:28:28.527Z,93.20
2018-01-14T05:30:56.024Z,93.10
2018-01-14T05:33:23.634Z,93.20
2018-01-14T05:35:51.156Z,92.80
2018-01-14T05:38:19.434Z,92.70
2018-01-14T05:40:47.733Z,92.80
2018-01-14T05:43:15.265Z,92.80
2018-01-14T05:45:43.647Z,92.80
2018-01-14T05:48:11.931Z,92.80
2018-01-14T05:50:40.194Z,92.60
2018-01-14T05:53:08.498Z,92.60
2018-01-14T05:55:36.010Z,92.60
2018-01-14T05:58:03.535Z,92.70
2018-01-14T06:00:31.071Z,92.60
2018-01-14T06:02:58.610Z,92.40
2018-01-14T06:05:26.894Z,92.40
2018-01-14T06:07:54.403Z,92.30
2018-01-14T06:10:21.925Z,92.50
2018-01-14T06:12:49.465Z,92.30
2018-01-14T06:15:17.738Z,92.00
2018-01-14T06:17:46.043Z,91.90
2018-01-14T06:20:13.562Z,91.90
2018-01-14T06:22:41.098Z,92.00
2018-01-14T06:25:08.609Z,91.90
2018-01-14T06:27:36.140Z,91.90
2018-01-14T06:30:03.717Z,91.60
2018-01-14T06:32:32.021Z,91.60
2018-01-14T06:34:59.526Z,91.60
2018-01-14T06:37:27.069Z,91.50
2018-01-14T06:39:54.813Z,91.50
2018-01-14T06:42:22.367Z,91.60
2018-01-14T06:44:49.879Z,91.50
2018-01-14T06:47:17.415Z,91.50
2018-01-14T06:49:44.914Z,91.50
2018-01-14T06:52:12.428Z,91.30
2018-01-14T06:54:39.962Z,91.30
2018-01-14T06:57:07.464Z,91.40
2018-01-14T06:59:34.962Z,91.30
2018-01-14T07:02:02.500Z,91.20
2018-01-14T07:04:30.803Z,91.30
2018-01-14T07:06:58.330Z,91.30
2018-01-14T07:09:25.849Z,91.10
2018-01-14T07:11:53.401Z,90.90
2018-01-14T07:14:20.908Z,90.80
2018-01-14T07:16:48.457Z,90.70
2018-01-14T07:19:16.731Z,90.80
2018-01-14T07:21:44.265Z,90.80
2018-01-14T07:24:11.775Z,90.80
2018-01-14T07:26:39.308Z,90.70
2018-01-14T07:29:06.829Z,90.90
2018-01-14T07:31:34.376Z,91.00
2018-01-14T07:34:01.924Z,90.90
2018-01-14T07:36:29.453Z,90.70
2018-01-14T07:38:57.760Z,90.60
2018-01-14T07:41:25.332Z,90.50
2018-01-14T07:43:52.836Z,90.40
2018-01-14T07:46:20.349Z,90.50
2018-01-14T07:48:47.896Z,90.40
2018-01-14T07:51:15.438Z,90.30
2018-01-14T07:53:42.983Z,90.10
2018-01-14T07:56:11.279Z,89.70
2018-01-14T07:58:38.806Z,89.70
2018-01-14T08:01:07.147Z,90.30
2018-01-14T08:03:35.401Z,90.00
2018-01-14T08:06:02.955Z,89.90
2018-01-14T08:08:30.504Z,89.40
2018-01-14T08:10:58.042Z,90.50
2018-01-14T08:13:26.457Z,89.00
2018-01-14T08:15:53.967Z,88.90
2018-01-14T08:18:21.511Z,89.20
2018-01-14T08:20:49.045Z,89.80
2018-01-14T08:23:16.617Z,88.60
2018-01-14T08:25:44.159Z,88.80
2018-01-14T08:28:11.678Z,88.70
2018-01-14T08:30:39.976Z,88.80
2018-01-14T08:33:07.515Z,88.70
2018-01-14T08:35:35.057Z,89.00
2018-01-14T08:38:03.340Z,87.80
2018-01-14T08:40:31.662Z,88.20
2018-01-14T08:42:59.198Z,88.00
2018-01-14T08:45:26.740Z,86.60
2018-01-14T08:47:55.029Z,86.70
2018-01-14T08:50:22.558Z,86.70
2018-01-14T08:52:50.110Z,86.50
2018-01-14T08:55:17.638Z,86.90
2018-01-14T08:57:45.164Z,87.10
2018-01-14T09:00:12.701Z,87.50
2018-01-14T09:02:41.031Z,86.60
2018-01-14T09:05:08.561Z,86.60
2018-01-14T09:07:36.101Z,86.50
2018-01-14T09:10:04.371Z,88.00
2018-01-14T09:12:32.720Z,88.00
2018-01-14T09:15:00.245Z,88.00
2018-01-14T09:17:27.777Z,86.50
2018-01-14T09:19:56.089Z,86.70
2018-01-14T09:22:23.642Z,86.70
2018-01-14T09:24:51.917Z,85.80
2018-01-14T09:27:19.431Z,85.80
2018-01-14T09:29:47.007Z,85.50
2018-01-14T09:32:15.334Z,84.50
2018-01-14T09:34:42.856Z,84.50
2018-01-14T09:37:10.407Z,84.80
2018-01-14T09:39:38.687Z,84.10
2018-01-14T09:42:06.953Z,84.10
2018-01-14T09:44:35.273Z,84.20
2018-01-14T09:47:02.783Z,84.20
2018-01-14T09:49:31.101Z,84.40
2018-01-14T09:51:58.654Z,84.30
2018-01-14T09:54:26.194Z,84.30
2018-01-14T09:56:53.722Z,84.60
2018-01-14T09:59:21.303Z,84.50
2018-01-14T10:01:49.606Z,83.30
2018-01-14T10:04:17.193Z,83.30
2018-01-14T10:06:44.736Z,83.20
2018-01-14T10:09:12.305Z,83.10
2018-01-14T10:11:39.853Z,82.40
2018-01-14T10:14:07.386Z,82.00
2018-01-14T10:16:34.917Z,81.30
2018-01-14T10:19:02.427Z,82.40
2018-01-14T10:21:30.014Z,82.50
2018-01-14T10:23:57.530Z,81.70
2018-01-14T10:26:25.081Z,81.90
2018-01-14T10:28:53.500Z,82.20
2018-01-14T10:31:21.071Z,81.90
2018-01-14T10:33:48.584Z,81.90
2018-01-14T10:36:16.127Z,81.00
2018-01-14T10:38:44.402Z,82.20
2018-01-14T10:41:12.713Z,81.70
2018-01-14T10:43:40.247Z,81.70
2018-01-14T10:46:07.835Z,81.40
2018-01-14T10:48:35.362Z,81.90
2018-01-14T10:51:02.895Z,81.00
2018-01-14T10:53:30.456Z,80.20
2018-01-14T10:55:57.983Z,80.10
2018-01-14T10:58:25.501Z,80.80
2018-01-14T11:00:58.083Z,80.50
2018-01-14T11:03:25.603Z,80.70
2018-01-14T11:05:53.186Z,81.20
2018-01-14T11:08:21.491Z,80.50
2018-01-14T11:10:49.018Z,80.50
2018-01-14T11:13:17.345Z,80.30
2018-01-14T11:15:44.854Z,80.20
2018-01-14T11:18:12.394Z,78.80
2018-01-14T11:20:40.721Z,79.20
2018-01-14T11:23:08.256Z,79.20
2018-01-14T11:25:37.107Z,79.00
2018-01-14T11:28:04.659Z,79.00
2018-01-14T11:30:32.257Z,78.50
2018-01-14T11:33:00.542Z,77.80
2018-01-14T11:35:28.079Z,77.80
2018-01-14T11:37:55.608Z,78.60
2018-01-14T11:40:23.352Z,79.00
2018-01-14T11:42:50.892Z,80.30
2018-01-14T11:45:18.436Z,80.00
2018-01-14T11:47:46.742Z,80.10
2018-01-14T11:50:14.284Z,80.20
2018-01-14T11:52:41.846Z,80.10
2018-01-14T11:55:09.360Z,80.70
2018-01-14T11:57:36.910Z,81.00
2018-01-14T12:00:04.468Z,79.40
2018-01-14T12:02:32.024Z,78.40
2018-01-14T12:04:59.592Z,77.90
2018-01-14T12:07:27.161Z,79.00
2018-01-14T12:09:54.723Z,79.20
2018-01-14T12:12:22.282Z,79.00
2018-01-14T12:14:49.850Z,78.90
2018-01-14T12:17:17.431Z,78.10
2018-01-14T12:19:45.020Z,76.90
2018-01-14T12:22:12.615Z,78.00
2018-01-14T12:24:40.138Z,78.30
2018-01-14T12:27:07.697Z,78.80
2018-01-14T12:29:35.235Z,78.70
2018-01-14T12:32:02.774Z,78.10
2018-01-14T12:34:40.021Z,77.60
2018-01-14T12:37:07.553Z,78.20
2018-01-14T12:39:35.112Z,78.10
2018-01-14T12:42:02.657Z,77.20
2018-01-14T12:44:30.187Z,76.90
2018-01-14T12:46:57.735Z,76.70
2018-01-14T12:49:25.608Z,77.30
2018-01-14T12:51:53.128Z,77.30
2018-01-14T12:54:20.671Z,78.40
2018-01-14T12:56:48.188Z,77.60
2018-01-14T12:59:15.759Z,77.40
2018-01-14T13:01:44.088Z,77.50
2018-01-14T13:04:11.604Z,77.50
2018-01-14T13:06:39.919Z,78.60
2018-01-14T13:09:07.429Z,78.50
2018-01-14T13:11:35.733Z,76.90
2018-01-14T13:14:03.250Z,76.90
2018-01-14T13:16:30.943Z,77.00
2018-01-14T13:18:58.645Z,76.30
2018-01-14T13:21:26.158Z,76.20
2018-01-14T13:23:53.676Z,77.30
2018-01-14T13:26:21.268Z,77.10
2018-01-14T13:28:49.584Z,76.60
2018-01-14T13:31:17.119Z,76.60
2018-01-14T13:33:44.671Z,76.50
2018-01-14T13:36:12.206Z,76.70
2018-01-14T13:38:39.715Z,76.30
2018-01-14T13:41:07.276Z,76.10
2018-01-14T13:43:34.790Z,75.90
2018-01-14T13:46:02.326Z,75.20
2018-01-14T13:48:29.864Z,75.10
2018-01-14T13:50:57.369Z,73.50
2018-01-14T13:53:25.682Z,71.80
2018-01-14T13:55:53.203Z,71.90
2018-01-14T13:58:20.747Z,72.50
2018-01-14T14:00:48.285Z,71.10
2018-01-14T14:03:15.826Z,70.60
2018-01-14T14:05:43.334Z,71.70
2018-01-14T14:08:11.681Z,71.90
2018-01-14T14:10:39.190Z,71.30
2018-01-14T14:13:07.490Z,71.90
2018-01-14T14:15:35.024Z,71.90
2018-01-14T14:18:02.545Z,73.20
2018-01-14T14:20:30.107Z,73.30
2018-01-14T14:22:57.627Z,73.20
2018-01-14T14:25:25.264Z,73.40
2018-01-14T14:27:52.807Z,74.00
2018-01-14T14:30:21.115Z,73.30
2018-01-14T14:32:48.650Z,73.30
2018-01-14T14:35:16.944Z,74.70
2018-01-14T14:37:44.486Z,74.70
2018-01-14T14:40:12.768Z,75.90
2018-01-14T14:42:41.066Z,76.90
2018-01-14T14:45:08.592Z,76.80
2018-01-14T14:47:37.002Z,75.90
2018-01-14T14:50:04.536Z,75.90
2018-01-14T14:52:32.900Z,75.80
2018-01-14T14:55:00.482Z,75.80
2018-01-14T14:57:28.014Z,76.30
2018-01-14T14:59:55.565Z,76.70
2018-01-14T15:02:23.091Z,76.40
2018-01-14T15:04:50.634Z,77.10
2018-01-14T15:07:18.191Z,77.50
2018-01-14T15:09:45.716Z,77.80
2018-01-14T15:12:14.047Z,77.60
2018-01-14T15:14:41.578Z,77.60
2018-01-14T15:17:09.152Z,77.70
2018-01-14T15:19:36.783Z,78.20
2018-01-14T15:22:04.338Z,78.10
2018-01-14T15:24:31.912Z,78.80
2018-01-14T15:26:59.442Z,79.80
2018-01-14T15:29:26.992Z,79.40
2018-01-14T15:31:54.509Z,80.70
2018-01-14T15:34:22.043Z,80.00
2018-01-14T15:36:49.578Z,79.80
2018-01-14T15:39:17.128Z,80.20
2018-01-14T15:41:44.655Z,80.10
2018-01-14T15:44:12.199Z,80.30
2018-01-14T15:46:39.730Z,80.30
2018-01-14T15:49:07.291Z,81.10
2018-01-14T15:51:35.576Z,81.30
2018-01-14T15:54:03.122Z,81.30
2018-01-14T15:56:31.429Z,82.30
2018-01-14T15:58:58.966Z,82.30
2018-01-14T16:01:26.520Z,82.50
2018-01-14T16:03:54.853Z,82.80
2018-01-14T16:06:22.372Z,82.80
2018-01-14T16:08:49.915Z,82.90
2018-01-14T16:11:18.259Z,83.30
2018-01-14T16:13:45.813Z,83.30
2018-01-14T16:16:13.360Z,83.50
2018-01-14T16:18:40.888Z,83.40
2018-01-14T16:21:08.450Z,83.40
2018-01-14T16:23:36.004Z,83.80
2018-01-14T16:26:03.578Z,83.80
2018-01-14T16:28:31.097Z,84.20
2018-01-14T16:30:58.623Z,84.70
2018-01-14T16:33:26.186Z,84.70
2018-01-14T16:35:53.766Z,85.00
2018-01-14T16:38:21.320Z,85.30
2018-01-14T16:40:48.849Z,85.30
2018-01-14T16:43:16.403Z,85.30
2018-01-14T16:45:43.948Z,85.30
2018-01-14T16:48:11.487Z,85.70
2018-01-14T16:50:39.005Z,85.70
2018-01-14T16:53:06.542Z,85.70
2018-01-14T16:55:34.125Z,86.30
2018-01-14T16:58:01.636Z,86.40
2018-01-14T17:00:29.195Z,86.60
2018-01-14T17:02:56.750Z,86.90
2018-01-14T17:05:24.307Z,87.00
2018-01-14T17:07:51.848Z,87.20
2018-01-14T17:10:20.207Z,87.20
2018-01-14T17:12:47.729Z,87.20
2018-01-14T17:15:15.330Z,87.10
2018-01-14T17:17:42.805Z,87.40
2018-01-14T17:20:11.135Z,87.40
2018-01-14T17:22:38.703Z,87.40
2018-01-14T17:25:06.246Z,87.70
2018-01-14T17:27:33.794Z,88.00
2018-01-14T17:30:01.333Z,88.10
2018-01-14T17:32:28.863Z,88.00
2018-01-14T17:34:56.411Z,88.10
2018-01-14T17:37:23.926Z,88.50
2018-01-14T17:39:51.440Z,88.50
2018-01-14T17:42:19.004Z,88.80
2018-01-14T17:44:47.314Z,88.90
2018-01-14T17:47:14.874Z,88.90
2018-01-14T17:49:42.410Z,89.00
2018-01-14T17:52:10.725Z,88.70
2018-01-14T17:54:38.241Z,88.70
2018-01-14T17:57:06.574Z,89.40
2018-01-14T17:59:34.093Z,89.40
2018-01-14T18:02:01.640Z,89.50
2018-01-14T18:04:29.951Z,89.40
2018-01-14T18:06:57.517Z,89.40
2018-01-14T18:09:25.038Z,89.40
2018-01-14T18:11:53.348Z,89.80
2018-01-14T18:14:20.930Z,89.80
2018-01-14T18:16:59.479Z,89.40
2018-01-14T18:19:27.783Z,89.70
2018-01-14T18:21:55.302Z,89.60
2018-01-14T18:24:22.913Z,90.00
2018-01-14T18:26:50.436Z,89.70
2018-01-14T18:29:19.427Z,89.60
2018-01-14T18:31:47.718Z,89.60
2018-01-14T18:34:15.257Z,89.60
2018-01-14T18:36:43.539Z,90.00
2018-01-14T18:39:11.082Z,90.00
2018-01-14T18:41:38.607Z,90.00
2018-01-14T18:44:06.150Z,89.90
2018-01-14T18:46:33.679Z,90.00
2018-01-14T18:49:01.992Z,90.00
2018-01-14T18:51:29.541Z,90.00
2018-01-14T18:53:57.860Z,90.50
2018-01-14T18:56:25.427Z,90.20
2018-01-14T18:58:53.080Z,90.20
2018-01-14T19:01:20.651Z,90.10
2018-01-14T19:03:48.310Z,90.00
2018-01-14T19:06:16.641Z,90.00
2018-01-14T19:08:44.182Z,90.00
2018-01-14T19:11:11.738Z,90.10
2018-01-14T19:13:39.301Z,90.10
2018-01-14T19:16:06.967Z,90.00
2018-01-14T19:18:34.669Z,90.00
2018-01-14T19:21:02.453Z,90.10
2018-01-14T19:23:30.904Z,90.10
2018-01-14T19:25:58.557Z,90.10
2018-01-14T19:28:26.181Z,90.20
2018-01-14T19:30:54.973Z,90.40
2018-01-14T19:33:23.369Z,90.40
2018-01-14T19:35:51.122Z,90.60
2018-01-14T19:38:18.801Z,90.60
2018-01-14T19:40:47.334Z,90.50
2018-01-14T19:43:15.306Z,90.50
2018-01-14T19:45:43.088Z,90.60
2018-01-14T19:48:10.864Z,90.50
2018-01-14T19:50:38.772Z,90.50
2018-01-14T19:53:06.610Z,90.60
2018-01-14T19:55:34.863Z,90.60
2018-01-14T19:58:03.098Z,90.60
2018-01-14T20:00:31.309Z,90.80
2018-01-14T20:02:59.266Z,90.90
2018-01-14T20:05:32.077Z,90.90
2018-01-14T20:08:00.989Z,91.40
2018-01-14T20:10:28.998Z,91.40
2018-01-14T20:12:57.005Z,91.80
2018-01-14T20:15:25.310Z,91.80
2018-01-14T20:17:54.301Z,91.90
2018-01-14T20:20:22.175Z,91.80
2018-01-14T20:22:51.292Z,91.80
2018-01-14T20:25:19.780Z,91.80
2018-01-14T20:27:49.047Z,91.80
2018-01-14T20:30:17.633Z,91.90
2018-01-14T20:32:49.057Z,91.90
2018-01-14T20:35:17.251Z,91.90
2018-01-14T20:37:45.145Z,91.90
2018-01-14T20:40:13.927Z,92.30
2018-01-14T20:42:43.116Z,92.20
2018-01-14T20:45:12.680Z,92.10
2018-01-14T20:47:41.406Z,92.20
2018-01-14T20:50:09.965Z,92.20
2018-01-14T20:52:37.621Z,92.20
2018-01-14T20:55:06.635Z,92.50
2018-01-14T20:57:35.936Z,92.60
2018-01-14T21:00:03.493Z,92.50
2018-01-14T21:02:31.032Z,92.50
2018-01-14T21:04:58.733Z,92.50
2018-01-14T21:07:26.297Z,92.50
2018-01-14T21:09:55.470Z,92.50
2018-01-14T21:12:23.312Z,92.60
2018-01-14T21:14:50.962Z,92.50
2018-01-14T21:17:18.894Z,92.50
2018-01-14T21:19:46.885Z,92.60
2018-01-14T21:22:15.361Z,92.60
2018-01-14T21:24:43.795Z,92.70
2018-01-14T21:27:11.745Z,92.70
2018-01-14T21:29:39.323Z,92.90
2018-01-14T21:32:07.201Z,93.00
2018-01-14T21:34:35.313Z,93.30
2018-01-14T21:37:04.019Z,93.50
2018-01-14T21:39:32.204Z,93.40
2018-01-14T21:42:00.271Z,93.60
2018-01-14T21:44:28.026Z,93.50
2018-01-14T21:46:55.693Z,93.50
2018-01-14T21:49:23.438Z,93.50
2018-01-14T21:51:51.708Z,93.50
2018-01-14T21:54:19.671Z,93.60
2018-01-14T21:56:47.264Z,93.50
2018-01-14T21:59:15.631Z,93.40
2018-01-14T22:01:43.340Z,93.40
2018-01-14T22:04:11.677Z,93.30
2018-01-14T22:06:40.276Z,93.20
2018-01-14T22:09:07.918Z,93.20
2018-01-14T22:11:35.608Z,93.00
2018-01-14T22:14:03.922Z,93.20
2018-01-14T22:16:31.983Z,93.20
2018-01-14T22:19:00.081Z,93.20
2018-01-14T22:21:28.605Z,93.10
2018-01-14T22:23:56.369Z,93.10
2018-01-14T22:26:23.950Z,93.10
2018-01-14T22:28:51.968Z,93.00
2018-01-14T22:31:20.631Z,93.00
2018-01-14T22:33:48.422Z,92.90
2018-01-14T22:36:16.118Z,92.90
2018-01-14T22:38:44.093Z,93.10
2018-01-14T22:41:11.938Z,93.20
2018-01-14T22:43:40.210Z,93.30
2018-01-14T22:46:07.868Z,93.20
2018-01-14T22:48:35.457Z,93.40
2018-01-14T22:51:03.203Z,93.70
2018-01-14T22:53:31.305Z,93.50
2018-01-14T22:55:59.132Z,93.60
2018-01-14T22:58:26.740Z,94.10
2018-01-14T23:00:54.284Z,94.20
2018-01-14T23:03:22.239Z,94.50
2018-01-14T23:05:50.271Z,94.40
2018-01-14T23:08:17.842Z,94.30
2018-01-14T23:10:45.374Z,94.20
2018-01-14T23:13:13.111Z,94.20
2018-01-14T23:15:41.033Z,94.10
2018-01-14T23:18:09.328Z,93.90
2018-01-14T23:20:36.915Z,93.90
2018-01-14T23:23:04.458Z,93.80
2018-01-14T23:25:32.009Z,93.80
2018-01-14T23:27:59.530Z,93.70
2018-01-14T23:30:27.195Z,93.70
2018-01-14T23:32:54.909Z,93.70
2018-01-14T23:35:22.457Z,93.90
2018-01-14T23:37:50.007Z,93.60
2018-01-14T23:40:17.677Z,93.60
2018-01-14T23:42:45.564Z,93.60
2018-01-14T23:45:13.110Z,93.60
2018-01-14T23:47:40.656Z,93.50
2018-01-14T23:50:08.256Z,93.60
2018-01-14T23:52:35.979Z,93.60
2018-01-14T23:55:03.541Z,93.60
2018-01-14T23:57:31.069Z,93.60
2018-01-14T23:59:59.396Z,93.50
